Happy Valentine's Day! 

Flight Track Log - Related Links

Times and Time Zones

All times are in EDT time to prevent confusion due to time zone crossing. See the C-FTOH flight status page for this flight to view local times or setup timezone preferences in your user account.


Time Position Orientation Groundspeed Altitude Reporting Facility
EDT Latitude Longitude Course Direction KTS MPH feet Rate Location/Type
Sun 09:34:13 PM 26.0770 -80.1350 90° East 175 201 500  Level FlightAware ADS-B
Sun 09:34:38 PM 26.0780 -80.1150 87° East 188 216 1,300 1,745 Climbing FlightAware ADS-B
Sun 09:35:08 PM 26.0790 -80.0820 88° East 216 249 2,100 1,400 Climbing FlightAware ADS-B
Sun 09:35:38 PM 26.0760 -80.0430 95° East 263 303 2,700 2,400 Climbing FlightAware ADS-B
Sun 09:36:03 PM 26.0780 -80.0100 86° East 262 302 4,300 3,164 Climbing FlightAware ADS-B
Sun 09:36:33 PM 26.0920 -79.9740 67° East 281 323 5,600 2,727 Climbing FlightAware ADS-B
Sun 09:36:58 PM 26.1120 -79.9430 54° Northeast 286 329 6,800 2,667 Climbing FlightAware ADS-B
Sun 09:37:18 PM 26.1270 -79.9200 54° Northeast 290 334 7,600 2,400 Climbing FlightAware ADS-B
Sun 09:37:58 PM 26.1560 -79.8720 56° Northeast 302 348 9,200 2,250 Climbing FlightAware ADS-B
Sun 09:38:38 PM 26.1900 -79.8180 55° Northeast 325 374 10,600 1,875 Climbing FlightAware ADS-B
Sun 09:39:18 PM 26.2250 -79.7600 56° Northeast 355 409 11,700 1,976 Climbing FlightAware ADS-B
Sun 09:40:03 PM 26.2690 -79.6890 55° Northeast 375 432 13,400 2,259 Climbing FlightAware ADS-B
Sun 09:40:43 PM 26.3090 -79.6240 56° Northeast 385 443 14,900 2,259 Climbing FlightAware ADS-B
Sun 09:41:28 PM 26.3590 -79.5510 53° Northeast 398 458 16,600 2,259 Climbing FlightAware ADS-B
Sun 09:42:08 PM 26.4210 -79.5030 35° Northeast 405 466 18,100 2,025 Climbing FlightAware ADS-B
Sun 09:42:48 PM 26.4850 -79.4570 33° Northeast 418 481 19,300 2,047 Climbing FlightAware ADS-B
Sun 09:43:33 PM 26.5560 -79.4060 33° Northeast 418 481 21,000 2,259 Climbing FlightAware ADS-B
Sun 09:44:13 PM 26.6240 -79.3580 32° Northeast 419 482 22,500 1,765 Climbing FlightAware ADS-B
Sun 09:44:58 PM 26.6980 -79.3050 33° Northeast 425 489 23,500 1,200 Climbing FlightAware ADS-B
Sun 09:45:38 PM 26.7670 -79.2560 32° Northeast 441 507 24,200 975 Climbing FlightAware ADS-B
Sun 09:46:18 PM 26.8340 -79.2080 33° Northeast 464 534 24,800 1,059 Climbing FlightAware ADS-B
Sun 09:47:03 PM 26.9200 -79.1460 33° Northeast 477 549 25,700 1,385 Climbing FlightAware ADS-B
Sun 09:47:43 PM 26.9940 -79.0930 33° Northeast 26,700 1,482 Climbing FlightAware ADS-B
Sun 09:48:28 PM 27.0810 -79.0300 33° Northeast 482 555 27,800 1,453 Climbing FlightAware ADS-B
Sun 09:49:18 PM 27.1760 -78.9620 32° Northeast 480 552 29,000 1,326 Climbing FlightAware ADS-B
Sun 09:50:03 PM 27.2660 -78.8970 33° Northeast 484 557 29,900 1,271 Climbing FlightAware ADS-B
Sun 09:50:43 PM 27.3400 -78.8540 27° Northeast 463 533 30,800 1,412 Climbing FlightAware ADS-B
Sun 09:51:28 PM 27.4380 -78.8250 15° North 448 516 31,900 1,043 Climbing FlightAware ADS-B
Sun 09:52:38 PM 27.5750 -78.7890 13° North 448 516 32,800 1,020 Climbing FlightAware ADS-B
Sun 09:53:08 PM 27.6300 -78.7740 14° North 450 518 33,600 706 Climbing FlightAware ADS-B
Sun 09:54:03 PM 27.7360 -78.7460 13° North 450 518 33,800 126 Climbing FlightAware ADS-B
Sun 09:54:43 PM 27.8050 -78.7280 13° North 450 518 33,800  Level FlightAware ADS-B
Sun 09:55:23 PM 27.8740 -78.7100 13° North 450 518 33,800 456 Level FlightAware ADS-B
Sun 09:56:08 PM 28.0040 -78.6730 14° North 35,000 610 Climbing FlightAware ADS-B
Sun 09:57:21 PM 28.1539 -78.6322 14° North 445 512 35,000  Level Miami Center
Sun 09:58:20 PM 28.2817 -78.5989 13° North 445 512 35,000  Level Miami Center
Sun 09:59:20 PM 28.4031 -78.5653 14° North 450 518 35,000  Level Miami Center
Sun 10:00:20 PM 28.5308 -78.5294 14° North 450 518 35,000 -50 Level Miami Center
Sun 10:01:21 PM 28.6567 -78.4958 13° North 455 524 34,900  Descending Miami Center
Sun 10:02:20 PM 28.7842 -78.4644 12° North 449 517 35,000  Climbing Miami Center
Sun 10:03:21 PM 28.8994 -78.4258 16° North 452 520 34,900  Descending Miami Center
Sun 10:04:19 PM 29.0292 -78.3944 12° North 452 520 35,000  Climbing Miami Center
Sun 10:05:21 PM 29.1589 -78.3631 12° North 457 526 34,900  Descending Miami Center
Sun 10:06:21 PM 29.2761 -78.3242 16° North 450 518 35,000 50 Climbing Miami Center
Sun 10:07:22 PM 29.4078 -78.2903 13° North 456 525 35,000 -51 Level Miami Center
Sun 10:08:19 PM 29.5353 -78.2561 13° North 465 535 34,900  Descending Miami Center
Sun 10:09:21 PM 29.6589 -78.2194 14° North 465 535 35,000 71 Climbing Miami Center
Sun 10:09:44 PM 29.7064 -78.2017 18° North 467 537 35,000  Level Jacksonville Center
Sun 10:10:43 PM 29.8303 -78.1644 15° North 462 532 35,000  Level Jacksonville Center
Sun 10:11:43 PM 29.9564 -78.1297 13° North 456 525 35,000  Level Jacksonville Center
Sun 10:12:43 PM 30.0822 -78.0922 14° North 462 532 35,000 -50 Level Jacksonville Center
Sun 10:13:43 PM 30.2039 -78.0547 15° North 462 532 34,900  Descending Jacksonville Center
Sun 10:14:44 PM 30.3364 -78.0242 11° North 469 540 35,000  Climbing Jacksonville Center
Sun 10:15:44 PM 30.4600 -77.9817 17° North 469 540 34,900 -50 Descending Jacksonville Center
Sun 10:16:43 PM 30.5861 -77.9486 13° North 457 526 34,900 50 Level Jacksonville Center
Sun 10:17:44 PM 30.7139 -77.9083 15° North 476 548 35,000 50 Climbing Jacksonville Center
Sun 10:18:44 PM 30.8397 -77.8750 13° North 476 548 35,000  Level Jacksonville Center
Sun 10:19:43 PM 30.9678 -77.8392 13° North 466 536 35,000  Level Jacksonville Center
Sun 10:20:43 PM 31.0936 -77.8008 15° North 472 543 35,000 -50 Level Jacksonville Center
Sun 10:21:43 PM 31.2194 -77.7650 14° North 473 544 34,900  Descending Jacksonville Center
Sun 10:22:43 PM 31.3475 -77.7311 13° North 466 536 35,000 50 Climbing Jacksonville Center
Sun 10:23:43 PM 31.4772 -77.6850 17° North 475 547 35,000 -50 Level Jacksonville Center
Sun 10:24:43 PM 31.6053 -77.6533 12° North 463 533 34,900  Descending Jacksonville Center
Sun 10:25:43 PM 31.7311 -77.6194 13° North 469 540 35,000  Climbing Jacksonville Center
Sun 10:26:43 PM 31.8631 -77.5800 14° North 469 540 34,900 -50 Descending Jacksonville Center
Sun 10:27:43 PM 31.9925 -77.5333 17° North 469 540 34,900  Level Jacksonville Center
Sun 10:28:43 PM 32.1206 -77.4989 13° North 474 545 34,900 50 Level Jacksonville Center
Sun 10:29:43 PM 32.2483 -77.4619 14° North 469 540 35,000  Climbing Jacksonville Center
Sun 10:30:43 PM 32.3783 -77.4247 14° North 469 540 34,900  Descending Jacksonville Center
Sun 10:31:43 PM 32.5061 -77.3900 13° North 474 545 35,000 50 Climbing Jacksonville Center
Sun 10:32:43 PM 32.6378 -77.3450 16° North 474 545 35,000 -50 Level Jacksonville Center
Sun 10:33:43 PM 32.7697 -77.3072 14° North 479 551 34,900  Descending Jacksonville Center
Sun 10:35:24 PM 32.9736 -77.2450 14° North 471 542 35,000 37 Climbing Washington Center
Sun 10:36:24 PM 33.1033 -77.2078 14° North 471 542 35,000  Level Washington Center
Sun 10:37:24 PM 33.2353 -77.1683 14° North 478 550 35,000  Level Washington Center
Sun 10:38:24 PM 33.3650 -77.1283 14° North 478 550 35,000 -50 Level Washington Center
Sun 10:39:24 PM 33.4969 -77.0883 14° North 478 550 34,900 -50 Descending Washington Center
Sun 10:40:24 PM 33.6289 -77.0483 14° North 478 550 34,900  Level Washington Center
Sun 10:41:24 PM 33.7608 -77.0058 15° North 478 550 34,900 50 Level Washington Center
Sun 10:42:24 PM 33.8928 -76.9681 13° North 484 557 35,000 50 Climbing Washington Center
Sun 10:43:24 PM 34.0244 -76.9275 14° North 484 557 35,000 400 Level Washington Center
Sun 10:44:24 PM 34.1586 -76.8847 15° North 484 557 35,800 900 Climbing Washington Center
Sun 10:45:24 PM 34.2883 -76.8439 15° North 484 557 36,800 595 Climbing Washington Center
Sun 10:46:25 PM 34.4161 -76.8031 15° North 479 551 37,000 100 Climbing Washington Center
Sun 10:47:24 PM 34.5458 -76.7647 14° North 474 545 37,000  Level Washington Center
Sun 10:48:24 PM 34.6733 -76.7233 15° North 474 545 37,000  Level Washington Center
Sun 10:49:24 PM 34.8011 -76.6822 15° North 474 545 37,000  Level Washington Center
Sun 10:50:24 PM 34.9308 -76.6408 15° North 474 545 37,000  Level Washington Center
Sun 10:51:24 PM 35.0583 -76.6019 14° North 474 545 37,000  Level Washington Center
Sun 10:52:24 PM 35.1839 -76.5628 14° North 474 545 37,000  Level Washington Center
Sun 10:53:24 PM 35.3075 -76.5236 14° North 468 539 37,000 -50 Level Washington Center
Sun 10:54:24 PM 35.4433 -76.4794 15° North 463 533 36,900 -50 Descending Washington Center
Sun 10:55:24 PM 35.5689 -76.4372 15° North 457 526 36,900 50 Level Washington Center
Sun 10:56:24 PM 35.6942 -76.3978 14° North 457 526 37,000 50 Climbing Washington Center
Sun 10:57:24 PM 35.8219 -76.3553 15° North 457 526 37,000  Level Washington Center
Sun 11:03:08 PM 36.5370 -76.1230 15° North 463 533 37,000  Level FlightAware ADS-B
Sun 11:03:48 PM 36.6180 -76.0960 15° North 463 533 37,000  Level FlightAware ADS-B
Sun 11:04:23 PM 36.6880 -76.0730 15° North 463 533 37,000  Level FlightAware ADS-B
Sun 11:05:28 PM 36.8260 -76.0270 15° North 472 543 37,000  Level FlightAware ADS-B
Sun 11:05:44 PM 36.8759 -76.0107 15° North 473 544 37,000  Level FlightAware ADS-B
Sun 11:06:14 PM 36.9396 -75.9894 15° North 474 545 37,000  Level FlightAware ADS-B
Sun 11:06:45 PM 37.0043 -75.9678 15° North 474 545 37,000  Level FlightAware ADS-B
Sun 11:07:15 PM 37.0683 -75.9463 15° North 475 547 37,000  Level FlightAware ADS-B
Sun 11:07:47 PM 37.1358 -75.9236 15° North 475 547 37,000  Level FlightAware ADS-B
Sun 11:08:18 PM 37.2033 -75.9008 15° North 475 547 37,000  Level FlightAware ADS-B
Sun 11:08:51 PM 37.2717 -75.8737 17° North 480 552 37,000  Level FlightAware ADS-B
Sun 11:09:22 PM 37.3361 -75.8471 18° North 478 550 37,000  Level FlightAware ADS-B
Sun 11:09:52 PM 37.3993 -75.8210 18° North 477 549 37,000  Level FlightAware ADS-B
Sun 11:11:03 PM 37.5330 -75.7660 18° North 474 545 37,000  Level FlightAware ADS-B
Sun 11:11:43 PM 37.6230 -75.7280 18° North 472 543 37,000  Level FlightAware ADS-B
Sun 11:12:23 PM 37.7142 -75.6910 18° North 472 543 37,000  Level FlightAware ADS-B
Sun 11:12:54 PM 37.7791 -75.6641 18° North 474 545 37,000  Level FlightAware ADS-B
Sun 11:13:25 PM 37.8445 -75.6369 18° North 474 545 37,000  Level FlightAware ADS-B
Sun 11:14:33 PM 37.9854 -75.5781 18° North 475 547 37,000  Level FlightAware ADS-B
Sun 11:15:04 PM 38.0497 -75.5512 18° North 475 547 37,000  Level FlightAware ADS-B
Sun 11:15:35 PM 38.1145 -75.5240 18° North 475 547 37,000  Level FlightAware ADS-B
Sun 11:16:07 PM 38.1811 -75.4961 18° North 475 547 37,000  Level FlightAware ADS-B
Sun 11:16:39 PM 38.2485 -75.4679 18° North 475 547 37,000  Level FlightAware ADS-B
Sun 11:17:09 PM 38.3119 -75.4414 18° North 476 548 37,000  Level FlightAware ADS-B
Sun 11:17:42 PM 38.3810 -75.4122 18° North 478 550 37,000  Level FlightAware ADS-B
Sun 11:18:14 PM 38.4471 -75.3840 18° North 477 549 37,000  Level FlightAware ADS-B
Sun 11:18:45 PM 38.5117 -75.3565 18° North 477 549 37,000  Level FlightAware ADS-B
Sun 11:19:17 PM 38.5799 -75.3276 18° North 477 549 37,000  Level FlightAware ADS-B
Sun 11:19:51 PM 38.6494 -75.2979 18° North 476 548 37,000  Level FlightAware ADS-B
Sun 11:20:22 PM 38.7148 -75.2700 18° North 477 549 37,000  Level FlightAware ADS-B
Sun 11:20:52 PM 38.7775 -75.2432 18° North 477 549 37,000  Level FlightAware ADS-B
Sun 11:21:22 PM 38.8402 -75.2164 18° North 477 549 37,000  Level FlightAware ADS-B
Sun 11:21:53 PM 38.9052 -75.1887 18° North 478 550 37,000  Level FlightAware ADS-B
Sun 11:22:23 PM 38.9686 -75.1616 18° North 478 550 37,000  Level FlightAware ADS-B
Sun 11:22:53 PM 39.0318 -75.1343 19° North 478 550 37,000  Level FlightAware ADS-B
Sun 11:23:25 PM 39.0970 -75.1062 18° North 479 551 37,000  Level FlightAware ADS-B
Sun 11:23:56 PM 39.1623 -75.0780 19° North 478 550 37,000  Level FlightAware ADS-B
Sun 11:24:26 PM 39.2261 -75.0504 19° North 478 550 37,000  Level FlightAware ADS-B
Sun 11:24:57 PM 39.2899 -75.0227 19° North 477 549 37,000  Level FlightAware ADS-B
Sun 11:25:28 PM 39.3545 -74.9946 19° North 476 548 37,000  Level FlightAware ADS-B
Sun 11:25:59 PM 39.4202 -74.9659 19° North 474 545 37,000  Level FlightAware ADS-B
Sun 11:26:39 PM 39.5032 -74.9297 19° North 471 542 37,000  Level FlightAware ADS-B
Sun 11:27:12 PM 39.5712 -74.9000 19° North 470 541 37,000  Level FlightAware ADS-B
Sun 11:27:53 PM 39.6546 -74.8634 19° North 469 540 37,000  Level FlightAware ADS-B
Sun 11:28:24 PM 39.7175 -74.8359 19° North 468 539 37,000  Level FlightAware ADS-B
Sun 11:29:00 PM 39.7928 -74.8026 19° North 468 539 37,000  Level FlightAware ADS-B
Sun 11:29:34 PM 39.8623 -74.7719 19° North 468 539 37,000  Level FlightAware ADS-B
Sun 11:30:07 PM 39.9287 -74.7426 19° North 469 540 37,000  Level FlightAware ADS-B
Sun 11:30:37 PM 39.9912 -74.7149 19° North 470 541 37,000  Level FlightAware ADS-B
Sun 11:31:07 PM 40.0531 -74.6875 19° North 470 541 37,000  Level FlightAware ADS-B
Sun 11:31:37 PM 40.1151 -74.6600 19° North 470 541 37,000  Level FlightAware ADS-B
Sun 11:32:08 PM 40.1777 -74.6321 19° North 471 542 37,000  Level FlightAware ADS-B
Sun 11:32:39 PM 40.2423 -74.6032 19° North 470 541 37,000  Level FlightAware ADS-B
Sun 11:33:12 PM 40.3109 -74.5725 19° North 472 543 37,000  Level FlightAware ADS-B
Sun 11:33:43 PM 40.3735 -74.5444 19° North 471 542 37,000  Level FlightAware ADS-B
Sun 11:34:14 PM 40.4368 -74.5158 19° North 470 541 37,000  Level FlightAware ADS-B
Sun 11:34:53 PM 40.5160 -74.4800 19° North 468 539 37,000  Level FlightAware ADS-B
Sun 11:34:55 PM 40.5209 -74.4780 17° North 468 539 37,000  Level FlightAware ADS-B
Sun 11:35:25 PM 40.5826 -74.4502 19° North 468 539 37,000  Level FlightAware ADS-B
Sun 11:35:56 PM 40.6469 -74.4211 19° North 469 540 37,000  Level FlightAware ADS-B
Sun 11:36:28 PM 40.7116 -74.3918 19° North 470 541 37,000  Level FlightAware ADS-B
Sun 11:36:58 PM 40.7690 -74.3660 19° North 469 540 37,000  Level FlightAware ADS-B
Sun 11:37:00 PM 40.7781 -74.3616 20° North 470 541 37,000  Level FlightAware ADS-B
Sun 11:37:31 PM 40.8421 -74.3324 19° North 470 541 37,000  Level FlightAware ADS-B
Sun 11:38:02 PM 40.9040 -74.3042 19° North 469 540 37,000  Level FlightAware ADS-B
Sun 11:38:32 PM 40.9656 -74.2761 19° North 468 539 37,000  Level FlightAware ADS-B
Sun 11:39:02 PM 41.0278 -74.2476 19° North 468 539 37,000  Level FlightAware ADS-B
Sun 11:39:19 PM 41.0616 -74.2321 19° North 467 537 37,000  Level FlightAware ADS-B
Sun 11:39:32 PM 41.0895 -74.2193 19° North 466 536 37,000  Level FlightAware ADS-B
Sun 11:40:03 PM 41.1526 -74.1902 19° North 465 535 37,000  Level FlightAware ADS-B
Sun 11:40:33 PM 41.2134 -74.1622 19° North 465 535 37,000  Level FlightAware ADS-B
Sun 11:41:03 PM 41.2743 -74.1343 19° North 465 535 37,000  Level FlightAware ADS-B
Sun 11:41:13 PM 41.2930 -74.1257 19° North 465 535 37,000  Level FlightAware ADS-B
Sun 11:41:34 PM 41.3358 -74.1059 19° North 465 535 37,000  Level FlightAware ADS-B
Sun 11:42:04 PM 41.3969 -74.0776 19° North 465 535 37,000  Level FlightAware ADS-B
Sun 11:42:35 PM 41.4597 -74.0485 19° North 466 536 37,000  Level FlightAware ADS-B
Sun 11:43:05 PM 41.5217 -74.0197 19° North 466 536 37,000  Level FlightAware ADS-B
Sun 11:43:35 PM 41.5833 -73.9909 19° North 466 536 37,000  Level FlightAware ADS-B
Sun 11:44:06 PM 41.6456 -73.9618 19° North 467 537 37,000  Level FlightAware ADS-B
Sun 11:44:36 PM 41.7073 -73.9328 19° North 465 535 37,000  Level FlightAware ADS-B
Sun 11:45:07 PM 41.7689 -73.9039 19° North 466 536 37,000  Level FlightAware ADS-B
Sun 11:45:38 PM 41.8313 -73.8745 19° North 464 534 37,000  Level FlightAware ADS-B
Sun 11:46:08 PM 41.8933 -73.8453 19° North 463 533 37,000  Level FlightAware ADS-B
Sun 11:46:39 PM 41.9543 -73.8166 19° North 463 533 37,000  Level FlightAware ADS-B
Sun 11:47:10 PM 42.0171 -73.7869 19° North 462 532 37,000  Level FlightAware ADS-B
Sun 11:47:40 PM 42.0786 -73.7576 19° North 461 531 37,000  Level FlightAware ADS-B
Sun 11:48:17 PM 42.1520 -73.7229 19° North 459 528 37,000  Level FlightAware ADS-B
Sun 11:48:48 PM 42.2050 -73.6980 19° North 459 528 37,000  Level FlightAware ADS-B
Sun 11:49:14 PM 42.2665 -73.6685 20° North 460 529 37,000  Level FlightAware ADS-B
Sun 11:49:45 PM 42.3291 -73.6385 20° North 461 531 37,000  Level FlightAware ADS-B
Sun 11:50:58 PM 42.4710 -73.5710 19° North 459 528 37,000  Level FlightAware ADS-B
Sun 11:51:38 PM 42.5520 -73.5320 20° North 459 528 37,000  Level FlightAware ADS-B
Sun 11:52:18 PM 42.6310 -73.4940 19° North 458 527 37,000  Level FlightAware ADS-B
Sun 11:53:03 PM 42.7220 -73.4500 20° North 457 526 37,000  Level FlightAware ADS-B
Sun 11:53:43 PM 42.8010 -73.4110 20° North 458 527 37,000  Level FlightAware ADS-B
Sun 11:54:23 PM 42.8830 -73.3720 19° North 458 527 37,000  Level FlightAware ADS-B
Sun 11:55:08 PM 42.9680 -73.3300 20° North 454 522 37,000  Level FlightAware ADS-B
Sun 11:55:48 PM 43.0440 -73.2920 20° North 453 521 37,000  Level FlightAware ADS-B
Sun 11:56:33 PM 43.0620 -73.2840 18° North 453 521 37,000  Level FlightAware ADS-B
Sun 11:57:13 PM 43.1350 -73.2480 20° North 451 519 37,000  Level FlightAware ADS-B
Sun 11:57:53 PM 43.2140 -73.2090 20° North 452 520 37,000  Level FlightAware ADS-B
Sun 11:58:33 PM 43.2920 -73.1710 20° North 450 518 37,000  Level FlightAware ADS-B
Sun 11:59:33 PM 43.3920 -73.1210 20° North 447 514 37,000  Level FlightAware ADS-B
Mon 12:00:13 AM 43.4580 -73.0880 20° North 446 513 37,000  Level FlightAware ADS-B
Mon 12:00:58 AM 43.5300 -73.0530 19° North 446 513 37,000  Level FlightAware ADS-B
Mon 12:01:38 AM 43.6120 -73.0110 20° North 445 512 37,000  Level FlightAware ADS-B
Mon 12:02:33 AM 43.7860 -72.9240 20° North 448 516 37,000  Level FlightAware ADS-B
Mon 12:03:18 AM 43.9260 -72.8540 20° North 448 516 37,000  Level FlightAware ADS-B
Mon 12:03:58 AM 44.0020 -72.8150 20° North 448 516 37,000  Level FlightAware ADS-B
Mon 12:04:38 AM 44.0780 -72.7760 20° North 448 516 37,000  Level FlightAware ADS-B
Mon 12:05:23 AM 44.1710 -72.7290 20° North 447 514 37,000  Level FlightAware ADS-B
Mon 12:06:03 AM 44.2470 -72.6900 20° North 447 514 37,000  Level FlightAware ADS-B
Mon 12:06:48 AM 44.3320 -72.6460 20° North 446 513 37,000  Level FlightAware ADS-B
Mon 12:07:28 AM 44.4100 -72.6060 20° North 445 512 37,000 -424 Level FlightAware ADS-B
Mon 12:08:13 AM 44.4960 -72.5620 20° North 444 511 36,400 -918 Descending FlightAware ADS-B
Mon 12:08:53 AM 44.5750 -72.5210 20° North 443 510 35,700 -975 Descending FlightAware ADS-B
Mon 12:09:33 AM 44.6540 -72.4810 20° North 451 519 35,100 -918 Descending FlightAware ADS-B
Mon 12:10:18 AM 44.7380 -72.4370 20° North 438 504 34,400 -988 Descending FlightAware ADS-B
Mon 12:10:58 AM 44.8140 -72.3970 20° North 433 498 33,700 -847 Descending FlightAware ADS-B
Mon 12:11:43 AM 44.8990 -72.3520 21° North 426 490 33,200 -635 Descending FlightAware ADS-B
Mon 12:12:23 AM 44.9740 -72.3130 20° North 429 494 32,800 -825 Descending FlightAware ADS-B
Mon 12:13:03 AM 45.0480 -72.2740 20° North 427 491 32,100 -1,440 Descending FlightAware ADS-B
Mon 12:13:38 AM 45.1050 -72.2440 20° North 425 489 31,000 -1,976 Descending FlightAware ADS-B
Mon 12:14:28 AM 45.1940 -72.1970 20° North 408 470 29,300 -2,000 Descending FlightAware ADS-B
Mon 12:15:08 AM 45.2620 -72.1610 20° North 394 453 28,000 -2,000 Descending FlightAware ADS-B
Mon 12:15:43 AM 45.3250 -72.1270 21° North 381 438 26,800 -1,895 Descending FlightAware ADS-B
Mon 12:16:43 AM 45.4230 -72.0750 20° North 358 412 25,000 -1,771 Descending FlightAware ADS-B
Mon 12:17:28 AM 45.4920 -72.0380 21° North 345 397 23,700 -1,733 Descending FlightAware ADS-B
Mon 12:18:13 AM 45.5600 -72.0020 20° North 347 399 22,400 -1,667 Descending FlightAware ADS-B
Mon 12:18:58 AM 45.6270 -71.9660 21° North 350 403 21,200 -1,661 Descending FlightAware ADS-B
Mon 12:20:05 AM 45.7167 -71.8833 21° North 340 391 19,300 -1,606 Descending Montreal Center
Mon 12:21:05 AM 45.8000 -71.8500 16° North 340 391 17,800 -1,600 Descending Montreal Center
Mon 12:22:05 AM 45.8833 -71.8000 23° Northeast 330 380 16,100 -1,750 Descending Montreal Center
Mon 12:23:05 AM 45.9833 -71.7500 19° North 320 368 14,300 -1,700 Descending Montreal Center
Mon 12:24:05 AM 46.0667 -71.7167 16° North 310 357 12,700 -1,550 Descending Montreal Center
Mon 12:25:05 AM 46.1333 -71.6833 19° North 300 345 11,200 -1,200 Descending Montreal Center
Mon 12:26:05 AM 46.2167 -71.6833 360° North 290 334 10,300 -900 Descending Montreal Center
Mon 12:27:05 AM 46.3000 -71.6500 15° North 270 311 9,400 -1,100 Descending Montreal Center
Mon 12:28:05 AM 46.3667 -71.6333 10° North 260 299 8,100 -1,250 Descending Montreal Center
Mon 12:29:05 AM 46.4333 -71.6333 360° North 250 288 6,900 -1,150 Descending Montreal Center
Mon 12:30:05 AM 46.5000 -71.6000 19° North 250 288 5,800 -1,050 Descending Montreal Center
Mon 12:31:05 AM 46.5667 -71.6000 360° North 230 265 4,800 -809 Descending Montreal Center
Mon 12:37:08 AM 46.7910 -71.3940 360° North 142 163 100 -777 Descending FlightAware ADS-B

Login

Don't have an account? Register now (free) for customized features, flight alerts, and more!